sensor_id;sensor_type;location;lat;lon;timestamp;P1;durP1;ratioP1;P2;durP2;ratioP2
40867;SDS011;26586;50.708;22.412;2022-11-15T00:00:51;20.75;;;11.57;;
40867;SDS011;26586;50.708;22.412;2022-11-15T00:03:18;24.27;;;11.57;;
40867;SDS011;26586;50.708;22.412;2022-11-15T00:05:53;22.92;;;10.85;;
40867;SDS011;26586;50.708;22.412;2022-11-15T00:08:19;17.85;;;10.52;;
40867;SDS011;26586;50.708;22.412;2022-11-15T00:10:55;19.48;;;10.32;;
40867;SDS011;26586;50.708;22.412;2022-11-15T00:13:22;15.80;;;8.90;;
40867;SDS011;26586;50.708;22.412;2022-11-15T00:15:49;18.77;;;9.85;;
40867;SDS011;26586;50.708;22.412;2022-11-15T00:18:15;18.02;;;10.10;;
40867;SDS011;26586;50.708;22.412;2022-11-15T00:20:42;18.42;;;9.73;;
40867;SDS011;26586;50.708;22.412;2022-11-15T00:23:09;16.80;;;9.05;;
40867;SDS011;26586;50.708;22.412;2022-11-15T00:25:36;13.50;;;8.43;;
40867;SDS011;26586;50.708;22.412;2022-11-15T00:28:02;14.77;;;8.13;;
40867;SDS011;26586;50.708;22.412;2022-11-15T00:30:28;15.40;;;8.45;;
40867;SDS011;26586;50.708;22.412;2022-11-15T00:32:55;16.60;;;8.87;;
40867;SDS011;26586;50.708;22.412;2022-11-15T00:35:21;15.73;;;8.98;;
40867;SDS011;26586;50.708;22.412;2022-11-15T00:37:48;16.73;;;8.60;;
40867;SDS011;26586;50.708;22.412;2022-11-15T00:40:14;17.75;;;8.98;;
40867;SDS011;26586;50.708;22.412;2022-11-15T00:42:41;17.93;;;9.50;;
40867;SDS011;26586;50.708;22.412;2022-11-15T00:45:07;16.13;;;8.00;;
40867;SDS011;26586;50.708;22.412;2022-11-15T00:47:34;18.08;;;9.52;;
40867;SDS011;26586;50.708;22.412;2022-11-15T00:50:01;21.48;;;10.15;;
40867;SDS011;26586;50.708;22.412;2022-11-15T00:52:27;15.75;;;9.07;;
40867;SDS011;26586;50.708;22.412;2022-11-15T00:54:53;18.00;;;10.10;;
40867;SDS011;26586;50.708;22.412;2022-11-15T00:57:19;18.80;;;9.07;;
40867;SDS011;26586;50.708;22.412;2022-11-15T00:59:45;17.23;;;9.70;;
40867;SDS011;26586;50.708;22.412;2022-11-15T01:02:11;20.83;;;9.90;;
40867;SDS011;26586;50.708;22.412;2022-11-15T01:04:38;16.60;;;8.83;;
40867;SDS011;26586;50.708;22.412;2022-11-15T01:07:04;20.02;;;9.63;;
40867;SDS011;26586;50.708;22.412;2022-11-15T01:09:30;15.83;;;8.90;;
40867;SDS011;26586;50.708;22.412;2022-11-15T01:11:56;15.13;;;8.57;;
40867;SDS011;26586;50.708;22.412;2022-11-15T01:14:23;17.87;;;8.83;;
40867;SDS011;26586;50.708;22.412;2022-11-15T01:16:49;16.70;;;9.60;;
40867;SDS011;26586;50.708;22.412;2022-11-15T01:19:15;15.03;;;8.87;;
40867;SDS011;26586;50.708;22.412;2022-11-15T01:21:41;20.20;;;9.52;;
40867;SDS011;26586;50.708;22.412;2022-11-15T01:24:10;17.48;;;8.48;;
40867;SDS011;26586;50.708;22.412;2022-11-15T01:26:38;19.15;;;9.55;;
40867;SDS011;26586;50.708;22.412;2022-11-15T01:29:04;18.33;;;9.23;;
40867;SDS011;26586;50.708;22.412;2022-11-15T01:31:30;16.10;;;9.07;;
40867;SDS011;26586;50.708;22.412;2022-11-15T01:33:57;18.87;;;9.87;;
40867;SDS011;26586;50.708;22.412;2022-11-15T01:36:23;18.40;;;8.25;;
40867;SDS011;26586;50.708;22.412;2022-11-15T01:38:53;17.58;;;9.48;;
40867;SDS011;26586;50.708;22.412;2022-11-15T01:41:22;17.08;;;8.18;;
40867;SDS011;26586;50.708;22.412;2022-11-15T01:43:54;14.65;;;8.77;;
40867;SDS011;26586;50.708;22.412;2022-11-15T01:46:31;16.70;;;8.70;;
40867;SDS011;26586;50.708;22.412;2022-11-15T01:49:02;17.98;;;8.95;;
40867;SDS011;26586;50.708;22.412;2022-11-15T01:51:36;18.77;;;9.55;;
40867;SDS011;26586;50.708;22.412;2022-11-15T01:54:04;17.25;;;8.50;;
40867;SDS011;26586;50.708;22.412;2022-11-15T01:56:37;17.48;;;8.77;;
40867;SDS011;26586;50.708;22.412;2022-11-15T01:59:11;16.63;;;8.82;;
40867;SDS011;26586;50.708;22.412;2022-11-15T02:01:37;16.40;;;8.63;;
40867;SDS011;26586;50.708;22.412;2022-11-15T02:06:38;17.50;;;8.07;;
40867;SDS011;26586;50.708;22.412;2022-11-15T02:09:06;17.02;;;8.40;;
40867;SDS011;26586;50.708;22.412;2022-11-15T02:11:32;19.98;;;9.00;;
40867;SDS011;26586;50.708;22.412;2022-11-15T02:13:59;16.52;;;8.05;;
40867;SDS011;26586;50.708;22.412;2022-11-15T02:19:05;14.48;;;7.60;;
40867;SDS011;26586;50.708;22.412;2022-11-15T02:21:38;15.20;;;8.60;;
40867;SDS011;26586;50.708;22.412;2022-11-15T02:32:25;13.68;;;6.93;;
40867;SDS011;26586;50.708;22.412;2022-11-15T02:35:02;16.15;;;8.90;;
40867;SDS011;26586;50.708;22.412;2022-11-15T02:42:55;13.50;;;7.35;;
40867;SDS011;26586;50.708;22.412;2022-11-15T02:45:50;13.65;;;7.63;;
40867;SDS011;26586;50.708;22.412;2022-11-15T02:48:22;13.23;;;7.35;;
40867;SDS011;26586;50.708;22.412;2022-11-15T02:50:50;14.13;;;7.47;;
40867;SDS011;26586;50.708;22.412;2022-11-15T02:53:17;13.25;;;7.45;;
40867;SDS011;26586;50.708;22.412;2022-11-15T02:55:45;11.23;;;5.80;;
40867;SDS011;26586;50.708;22.412;2022-11-15T03:09:24;11.80;;;6.47;;
40867;SDS011;26586;50.708;22.412;2022-11-15T03:12:03;11.60;;;6.13;;
40867;SDS011;26586;50.708;22.412;2022-11-15T03:14:58;13.45;;;6.72;;
40867;SDS011;26586;50.708;22.412;2022-11-15T03:17:35;14.55;;;7.70;;
40867;SDS011;26586;50.708;22.412;2022-11-15T03:20:06;11.98;;;6.95;;
40867;SDS011;26586;50.708;22.412;2022-11-15T03:22:39;12.50;;;7.20;;
40867;SDS011;26586;50.708;22.412;2022-11-15T03:25:09;13.32;;;6.75;;
40867;SDS011;26586;50.708;22.412;2022-11-15T03:27:41;12.60;;;7.28;;
40867;SDS011;26586;50.708;22.412;2022-11-15T03:30:12;9.75;;;5.82;;
40867;SDS011;26586;50.708;22.412;2022-11-15T03:32:41;12.88;;;6.65;;
40867;SDS011;26586;50.708;22.412;2022-11-15T03:35:18;11.80;;;6.13;;
40867;SDS011;26586;50.708;22.412;2022-11-15T03:40:15;12.77;;;6.35;;
40867;SDS011;26586;50.708;22.412;2022-11-15T03:45:41;12.02;;;5.85;;
40867;SDS011;26586;50.708;22.412;2022-11-15T03:48:10;12.00;;;6.25;;
40867;SDS011;26586;50.708;22.412;2022-11-15T03:50:45;10.95;;;6.47;;
40867;SDS011;26586;50.708;22.412;2022-11-15T03:53:12;10.48;;;6.20;;
40867;SDS011;26586;50.708;22.412;2022-11-15T03:55:39;11.07;;;6.63;;
40867;SDS011;26586;50.708;22.412;2022-11-15T03:58:05;11.80;;;7.10;;
40867;SDS011;26586;50.708;22.412;2022-11-15T04:00:31;9.48;;;5.88;;
40867;SDS011;26586;50.708;22.412;2022-11-15T04:02:58;13.40;;;6.47;;
40867;SDS011;26586;50.708;22.412;2022-11-15T04:05:24;13.30;;;6.70;;
40867;SDS011;26586;50.708;22.412;2022-11-15T04:07:50;13.43;;;6.80;;
40867;SDS011;26586;50.708;22.412;2022-11-15T04:10:16;12.70;;;7.03;;
40867;SDS011;26586;50.708;22.412;2022-11-15T04:12:44;11.37;;;6.47;;
40867;SDS011;26586;50.708;22.412;2022-11-15T04:15:20;11.18;;;6.57;;
40867;SDS011;26586;50.708;22.412;2022-11-15T04:17:48;11.35;;;6.28;;
40867;SDS011;26586;50.708;22.412;2022-11-15T04:20:21;10.13;;;5.85;;
40867;SDS011;26586;50.708;22.412;2022-11-15T04:23:09;9.70;;;5.85;;
40867;SDS011;26586;50.708;22.412;2022-11-15T04:25:55;9.18;;;5.25;;
40867;SDS011;26586;50.708;22.412;2022-11-15T04:28:24;9.70;;;5.72;;
40867;SDS011;26586;50.708;22.412;2022-11-15T04:30:50;10.63;;;6.68;;
40867;SDS011;26586;50.708;22.412;2022-11-15T04:33:16;11.82;;;7.38;;
40867;SDS011;26586;50.708;22.412;2022-11-15T04:35:42;10.77;;;6.53;;
40867;SDS011;26586;50.708;22.412;2022-11-15T04:38:09;9.68;;;6.15;;
40867;SDS011;26586;50.708;22.412;2022-11-15T04:40:37;10.57;;;6.13;;
40867;SDS011;26586;50.708;22.412;2022-11-15T04:43:03;10.13;;;6.30;;
40867;SDS011;26586;50.708;22.412;2022-11-15T04:45:30;9.18;;;5.82;;
40867;SDS011;26586;50.708;22.412;2022-11-15T04:47:56;11.70;;;6.33;;
40867;SDS011;26586;50.708;22.412;2022-11-15T04:50:22;11.73;;;6.47;;
40867;SDS011;26586;50.708;22.412;2022-11-15T04:52:52;11.83;;;6.50;;
40867;SDS011;26586;50.708;22.412;2022-11-15T04:55:19;11.25;;;5.75;;
40867;SDS011;26586;50.708;22.412;2022-11-15T04:57:46;9.60;;;5.75;;
40867;SDS011;26586;50.708;22.412;2022-11-15T05:00:13;12.43;;;6.82;;
40867;SDS011;26586;50.708;22.412;2022-11-15T05:02:41;12.18;;;6.75;;
40867;SDS011;26586;50.708;22.412;2022-11-15T05:05:25;13.02;;;7.72;;
40867;SDS011;26586;50.708;22.412;2022-11-15T05:07:52;10.37;;;6.47;;
40867;SDS011;26586;50.708;22.412;2022-11-15T05:10:18;10.38;;;6.10;;
40867;SDS011;26586;50.708;22.412;2022-11-15T05:12:44;11.05;;;6.97;;
40867;SDS011;26586;50.708;22.412;2022-11-15T05:15:12;9.45;;;6.22;;
40867;SDS011;26586;50.708;22.412;2022-11-15T05:17:38;10.93;;;6.17;;
40867;SDS011;26586;50.708;22.412;2022-11-15T05:20:04;22.05;;;13.52;;
40867;SDS011;26586;50.708;22.412;2022-11-15T05:22:34;12.25;;;6.75;;
40867;SDS011;26586;50.708;22.412;2022-11-15T05:25:00;12.55;;;7.53;;
40867;SDS011;26586;50.708;22.412;2022-11-15T05:27:26;16.87;;;9.20;;
40867;SDS011;26586;50.708;22.412;2022-11-15T05:29:52;11.18;;;7.22;;
40867;SDS011;26586;50.708;22.412;2022-11-15T05:32:19;14.30;;;8.63;;
40867;SDS011;26586;50.708;22.412;2022-11-15T05:34:45;12.73;;;7.32;;
40867;SDS011;26586;50.708;22.412;2022-11-15T05:37:13;15.15;;;8.38;;
40867;SDS011;26586;50.708;22.412;2022-11-15T05:39:39;13.38;;;7.75;;
40867;SDS011;26586;50.708;22.412;2022-11-15T05:42:07;13.77;;;9.20;;
40867;SDS011;26586;50.708;22.412;2022-11-15T05:44:38;11.00;;;6.50;;
40867;SDS011;26586;50.708;22.412;2022-11-15T05:47:08;12.10;;;7.47;;
40867;SDS011;26586;50.708;22.412;2022-11-15T05:49:37;14.63;;;7.57;;
40867;SDS011;26586;50.708;22.412;2022-11-15T05:52:08;14.18;;;7.22;;
40867;SDS011;26586;50.708;22.412;2022-11-15T05:54:37;18.55;;;8.65;;
40867;SDS011;26586;50.708;22.412;2022-11-15T05:57:04;17.30;;;9.15;;
40867;SDS011;26586;50.708;22.412;2022-11-15T05:59:31;13.93;;;7.90;;
40867;SDS011;26586;50.708;22.412;2022-11-15T06:04:24;12.60;;;8.07;;
40867;SDS011;26586;50.708;22.412;2022-11-15T06:06:51;24.33;;;14.93;;
40867;SDS011;26586;50.708;22.412;2022-11-15T06:09:17;14.38;;;11.73;;
40867;SDS011;26586;50.708;22.412;2022-11-15T06:11:43;28.63;;;20.73;;
40867;SDS011;26586;50.708;22.412;2022-11-15T06:14:09;100.93;;;62.70;;
40867;SDS011;26586;50.708;22.412;2022-11-15T06:16:36;130.27;;;92.43;;
40867;SDS011;26586;50.708;22.412;2022-11-15T06:19:02;15.63;;;10.70;;
40867;SDS011;26586;50.708;22.412;2022-11-15T06:21:28;10.65;;;7.60;;
40867;SDS011;26586;50.708;22.412;2022-11-15T06:23:54;11.60;;;8.10;;
40867;SDS011;26586;50.708;22.412;2022-11-15T06:26:21;16.73;;;12.23;;
40867;SDS011;26586;50.708;22.412;2022-11-15T06:28:47;12.75;;;8.90;;
40867;SDS011;26586;50.708;22.412;2022-11-15T06:31:13;12.55;;;7.88;;
40867;SDS011;26586;50.708;22.412;2022-11-15T06:33:40;14.68;;;11.23;;
40867;SDS011;26586;50.708;22.412;2022-11-15T06:36:07;18.55;;;12.60;;
40867;SDS011;26586;50.708;22.412;2022-11-15T06:38:35;18.52;;;13.68;;
40867;SDS011;26586;50.708;22.412;2022-11-15T06:41:03;18.33;;;13.82;;
40867;SDS011;26586;50.708;22.412;2022-11-15T06:43:30;14.27;;;9.52;;
40867;SDS011;26586;50.708;22.412;2022-11-15T06:45:58;11.43;;;7.30;;
40867;SDS011;26586;50.708;22.412;2022-11-15T06:50:52;11.48;;;7.82;;
40867;SDS011;26586;50.708;22.412;2022-11-15T06:55:45;16.17;;;11.57;;
40867;SDS011;26586;50.708;22.412;2022-11-15T06:58:11;19.05;;;13.95;;
40867;SDS011;26586;50.708;22.412;2022-11-15T07:00:37;14.00;;;10.10;;
40867;SDS011;26586;50.708;22.412;2022-11-15T07:03:04;14.13;;;9.17;;
40867;SDS011;26586;50.708;22.412;2022-11-15T07:05:30;10.77;;;7.30;;
40867;SDS011;26586;50.708;22.412;2022-11-15T07:07:57;13.43;;;8.73;;
40867;SDS011;26586;50.708;22.412;2022-11-15T07:10:24;15.93;;;10.98;;
40867;SDS011;26586;50.708;22.412;2022-11-15T07:12:51;14.23;;;9.80;;
40867;SDS011;26586;50.708;22.412;2022-11-15T07:15:19;17.45;;;10.52;;
40867;SDS011;26586;50.708;22.412;2022-11-15T07:17:45;37.35;;;17.85;;
40867;SDS011;26586;50.708;22.412;2022-11-15T07:20:12;18.02;;;10.60;;
40867;SDS011;26586;50.708;22.412;2022-11-15T07:22:41;17.27;;;12.27;;
40867;SDS011;26586;50.708;22.412;2022-11-15T07:25:08;30.15;;;15.48;;
40867;SDS011;26586;50.708;22.412;2022-11-15T07:27:34;52.70;;;25.98;;
40867;SDS011;26586;50.708;22.412;2022-11-15T07:30:01;10.80;;;7.18;;
40867;SDS011;26586;50.708;22.412;2022-11-15T07:32:28;11.18;;;6.95;;
40867;SDS011;26586;50.708;22.412;2022-11-15T07:34:54;15.17;;;9.47;;
40867;SDS011;26586;50.708;22.412;2022-11-15T07:37:20;16.58;;;9.88;;
40867;SDS011;26586;50.708;22.412;2022-11-15T07:39:47;21.48;;;12.68;;
40867;SDS011;26586;50.708;22.412;2022-11-15T07:42:13;11.32;;;8.02;;
40867;SDS011;26586;50.708;22.412;2022-11-15T07:44:58;15.20;;;10.93;;
40867;SDS011;26586;50.708;22.412;2022-11-15T07:47:24;14.05;;;9.02;;
40867;SDS011;26586;50.708;22.412;2022-11-15T07:49:51;11.13;;;6.73;;
40867;SDS011;26586;50.708;22.412;2022-11-15T07:52:17;10.03;;;6.60;;
40867;SDS011;26586;50.708;22.412;2022-11-15T07:54:43;12.57;;;8.03;;
40867;SDS011;26586;50.708;22.412;2022-11-15T07:57:11;51.08;;;27.63;;
40867;SDS011;26586;50.708;22.412;2022-11-15T07:59:38;10.85;;;7.65;;
40867;SDS011;26586;50.708;22.412;2022-11-15T08:02:04;30.30;;;21.13;;
40867;SDS011;26586;50.708;22.412;2022-11-15T08:04:30;11.80;;;7.50;;
40867;SDS011;26586;50.708;22.412;2022-11-15T08:06:56;19.35;;;11.45;;
40867;SDS011;26586;50.708;22.412;2022-11-15T08:09:24;14.02;;;8.70;;
40867;SDS011;26586;50.708;22.412;2022-11-15T08:11:50;14.02;;;9.07;;
40867;SDS011;26586;50.708;22.412;2022-11-15T08:14:16;14.53;;;8.80;;
40867;SDS011;26586;50.708;22.412;2022-11-15T08:16:42;11.93;;;7.53;;
40867;SDS011;26586;50.708;22.412;2022-11-15T08:19:09;12.23;;;6.93;;
40867;SDS011;26586;50.708;22.412;2022-11-15T08:21:35;10.82;;;5.90;;
40867;SDS011;26586;50.708;22.412;2022-11-15T08:24:03;15.90;;;10.00;;
40867;SDS011;26586;50.708;22.412;2022-11-15T08:26:29;13.18;;;8.18;;
40867;SDS011;26586;50.708;22.412;2022-11-15T08:28:55;13.73;;;8.63;;
40867;SDS011;26586;50.708;22.412;2022-11-15T08:31:21;11.98;;;7.68;;
40867;SDS011;26586;50.708;22.412;2022-11-15T08:33:48;10.10;;;6.65;;
40867;SDS011;26586;50.708;22.412;2022-11-15T08:36:15;10.80;;;6.57;;
40867;SDS011;26586;50.708;22.412;2022-11-15T08:38:42;14.43;;;10.90;;
40867;SDS011;26586;50.708;22.412;2022-11-15T08:41:09;34.90;;;21.77;;
40867;SDS011;26586;50.708;22.412;2022-11-15T08:43:49;27.10;;;19.85;;
40867;SDS011;26586;50.708;22.412;2022-11-15T08:46:15;63.88;;;38.28;;
40867;SDS011;26586;50.708;22.412;2022-11-15T08:48:41;27.87;;;18.73;;
40867;SDS011;26586;50.708;22.412;2022-11-15T08:51:07;10.05;;;6.55;;
40867;SDS011;26586;50.708;22.412;2022-11-15T08:53:34;8.50;;;5.93;;
40867;SDS011;26586;50.708;22.412;2022-11-15T08:56:00;8.60;;;5.57;;
40867;SDS011;26586;50.708;22.412;2022-11-15T08:58:27;23.23;;;15.73;;
40867;SDS011;26586;50.708;22.412;2022-11-15T09:00:53;41.15;;;30.38;;
40867;SDS011;26586;50.708;22.412;2022-11-15T09:03:20;28.67;;;20.60;;
40867;SDS011;26586;50.708;22.412;2022-11-15T09:05:47;11.18;;;7.40;;
40867;SDS011;26586;50.708;22.412;2022-11-15T09:08:13;15.53;;;10.77;;
40867;SDS011;26586;50.708;22.412;2022-11-15T09:10:39;10.82;;;7.60;;
40867;SDS011;26586;50.708;22.412;2022-11-15T09:13:05;13.73;;;10.50;;
40867;SDS011;26586;50.708;22.412;2022-11-15T09:15:31;36.85;;;32.63;;
40867;SDS011;26586;50.708;22.412;2022-11-15T09:17:58;13.03;;;11.20;;
40867;SDS011;26586;50.708;22.412;2022-11-15T09:20:25;15.85;;;11.88;;
40867;SDS011;26586;50.708;22.412;2022-11-15T09:22:51;22.92;;;15.57;;
40867;SDS011;26586;50.708;22.412;2022-11-15T09:25:17;17.08;;;12.13;;
40867;SDS011;26586;50.708;22.412;2022-11-15T09:27:43;16.17;;;12.87;;
40867;SDS011;26586;50.708;22.412;2022-11-15T09:30:10;13.98;;;9.95;;
40867;SDS011;26586;50.708;22.412;2022-11-15T09:32:36;11.45;;;9.70;;
40867;SDS011;26586;50.708;22.412;2022-11-15T09:35:02;15.70;;;12.43;;
40867;SDS011;26586;50.708;22.412;2022-11-15T09:37:31;27.60;;;20.55;;
40867;SDS011;26586;50.708;22.412;2022-11-15T09:39:57;14.27;;;11.07;;
40867;SDS011;26586;50.708;22.412;2022-11-15T09:50:42;13.98;;;10.70;;
40867;SDS011;26586;50.708;22.412;2022-11-15T09:53:21;13.55;;;11.30;;
40867;SDS011;26586;50.708;22.412;2022-11-15T09:55:56;11.93;;;8.07;;
40867;SDS011;26586;50.708;22.412;2022-11-15T09:58:29;10.10;;;7.10;;
40867;SDS011;26586;50.708;22.412;2022-11-15T10:01:08;13.55;;;10.30;;
40867;SDS011;26586;50.708;22.412;2022-11-15T10:03:42;12.13;;;9.25;;
40867;SDS011;26586;50.708;22.412;2022-11-15T10:06:45;11.82;;;9.75;;
40867;SDS011;26586;50.708;22.412;2022-11-15T10:09:09;10.13;;;7.22;;
40867;SDS011;26586;50.708;22.412;2022-11-15T10:11:42;11.90;;;8.77;;
40867;SDS011;26586;50.708;22.412;2022-11-15T10:14:13;12.70;;;8.35;;
40867;SDS011;26586;50.708;22.412;2022-11-15T10:22:40;13.27;;;9.43;;
40867;SDS011;26586;50.708;22.412;2022-11-15T10:25:18;78.28;;;44.63;;
40867;SDS011;26586;50.708;22.412;2022-11-15T10:27:53;20.05;;;13.65;;
40867;SDS011;26586;50.708;22.412;2022-11-15T10:30:28;58.95;;;35.67;;
40867;SDS011;26586;50.708;22.412;2022-11-15T10:32:57;60.50;;;35.40;;
40867;SDS011;26586;50.708;22.412;2022-11-15T10:35:29;93.43;;;55.17;;
40867;SDS011;26586;50.708;22.412;2022-11-15T10:38:11;16.40;;;11.40;;
40867;SDS011;26586;50.708;22.412;2022-11-15T10:40:39;22.20;;;19.73;;
40867;SDS011;26586;50.708;22.412;2022-11-15T10:45:40;11.18;;;7.90;;
40867;SDS011;26586;50.708;22.412;2022-11-15T10:50:43;10.38;;;7.30;;
40867;SDS011;26586;50.708;22.412;2022-11-15T10:56:11;9.00;;;5.85;;
40867;SDS011;26586;50.708;22.412;2022-11-15T10:58:44;10.05;;;6.63;;
40867;SDS011;26586;50.708;22.412;2022-11-15T11:03:58;8.35;;;6.63;;
40867;SDS011;26586;50.708;22.412;2022-11-15T11:06:26;10.23;;;6.82;;
40867;SDS011;26586;50.708;22.412;2022-11-15T11:09:02;12.32;;;7.03;;
40867;SDS011;26586;50.708;22.412;2022-11-15T11:14:21;12.82;;;7.80;;
40867;SDS011;26586;50.708;22.412;2022-11-15T11:25:14;17.75;;;10.40;;
40867;SDS011;26586;50.708;22.412;2022-11-15T11:36:39;9.38;;;6.70;;
40867;SDS011;26586;50.708;22.412;2022-11-15T11:42:48;9.43;;;5.72;;
40867;SDS011;26586;50.708;22.412;2022-11-15T11:48:07;18.42;;;14.23;;
40867;SDS011;26586;50.708;22.412;2022-11-15T11:50:44;10.35;;;5.70;;
40867;SDS011;26586;50.708;22.412;2022-11-15T11:53:13;7.05;;;4.65;;
40867;SDS011;26586;50.708;22.412;2022-11-15T11:55:52;6.22;;;4.65;;
40867;SDS011;26586;50.708;22.412;2022-11-15T12:00:57;7.03;;;5.25;;
40867;SDS011;26586;50.708;22.412;2022-11-15T12:03:30;12.30;;;6.75;;
40867;SDS011;26586;50.708;22.412;2022-11-15T12:06:21;14.90;;;7.90;;
40867;SDS011;26586;50.708;22.412;2022-11-15T12:08:51;7.65;;;5.28;;
40867;SDS011;26586;50.708;22.412;2022-11-15T12:11:23;7.75;;;5.00;;
40867;SDS011;26586;50.708;22.412;2022-11-15T12:14:21;8.98;;;5.88;;
40867;SDS011;26586;50.708;22.412;2022-11-15T12:16:57;10.23;;;6.00;;
40867;SDS011;26586;50.708;22.412;2022-11-15T12:24:30;13.90;;;9.32;;
40867;SDS011;26586;50.708;22.412;2022-11-15T12:27:33;15.55;;;10.60;;
40867;SDS011;26586;50.708;22.412;2022-11-15T12:30:08;8.23;;;5.40;;
40867;SDS011;26586;50.708;22.412;2022-11-15T12:32:51;11.13;;;6.95;;
40867;SDS011;26586;50.708;22.412;2022-11-15T12:35:27;7.93;;;4.60;;
40867;SDS011;26586;50.708;22.412;2022-11-15T12:38:03;7.25;;;4.70;;
40867;SDS011;26586;50.708;22.412;2022-11-15T12:40:31;8.70;;;5.85;;
40867;SDS011;26586;50.708;22.412;2022-11-15T12:45:41;9.50;;;7.75;;
40867;SDS011;26586;50.708;22.412;2022-11-15T12:58:44;15.15;;;9.63;;
40867;SDS011;26586;50.708;22.412;2022-11-15T13:12:11;10.60;;;5.45;;
40867;SDS011;26586;50.708;22.412;2022-11-15T13:14:59;7.45;;;5.50;;
40867;SDS011;26586;50.708;22.412;2022-11-15T13:22:41;7.47;;;4.78;;
40867;SDS011;26586;50.708;22.412;2022-11-15T13:27:51;6.25;;;4.25;;
40867;SDS011;26586;50.708;22.412;2022-11-15T13:30:21;7.90;;;6.07;;
40867;SDS011;26586;50.708;22.412;2022-11-15T13:32:48;7.97;;;5.40;;
40867;SDS011;26586;50.708;22.412;2022-11-15T13:35:23;9.98;;;5.20;;
40867;SDS011;26586;50.708;22.412;2022-11-15T13:37:52;7.55;;;5.38;;
40867;SDS011;26586;50.708;22.412;2022-11-15T13:42:58;9.98;;;6.82;;
40867;SDS011;26586;50.708;22.412;2022-11-15T13:45:24;11.88;;;7.45;;
40867;SDS011;26586;50.708;22.412;2022-11-15T13:47:53;11.40;;;7.00;;
40867;SDS011;26586;50.708;22.412;2022-11-15T13:50:26;12.40;;;9.10;;
40867;SDS011;26586;50.708;22.412;2022-11-15T13:52:58;12.32;;;6.60;;
40867;SDS011;26586;50.708;22.412;2022-11-15T13:55:27;8.00;;;5.35;;
40867;SDS011;26586;50.708;22.412;2022-11-15T13:57:58;14.77;;;9.82;;
40867;SDS011;26586;50.708;22.412;2022-11-15T14:02:57;13.70;;;9.18;;
40867;SDS011;26586;50.708;22.412;2022-11-15T14:06:30;17.13;;;10.18;;
40867;SDS011;26586;50.708;22.412;2022-11-15T14:09:03;13.80;;;9.45;;
40867;SDS011;26586;50.708;22.412;2022-11-15T14:11:30;20.30;;;12.68;;
40867;SDS011;26586;50.708;22.412;2022-11-15T14:19:13;20.98;;;14.48;;
40867;SDS011;26586;50.708;22.412;2022-11-15T14:27:39;28.42;;;23.42;;
40867;SDS011;26586;50.708;22.412;2022-11-15T14:30:06;30.48;;;22.75;;
40867;SDS011;26586;50.708;22.412;2022-11-15T14:32:46;45.03;;;28.23;;
40867;SDS011;26586;50.708;22.412;2022-11-15T14:35:18;54.22;;;33.28;;
40867;SDS011;26586;50.708;22.412;2022-11-15T14:37:46;43.90;;;23.38;;
40867;SDS011;26586;50.708;22.412;2022-11-15T14:40:14;40.80;;;23.27;;
40867;SDS011;26586;50.708;22.412;2022-11-15T14:42:44;51.72;;;26.90;;
40867;SDS011;26586;50.708;22.412;2022-11-15T14:45:13;61.15;;;35.75;;
40867;SDS011;26586;50.708;22.412;2022-11-15T14:47:46;70.40;;;41.95;;
40867;SDS011;26586;50.708;22.412;2022-11-15T14:50:13;59.95;;;36.25;;
40867;SDS011;26586;50.708;22.412;2022-11-15T14:52:41;63.60;;;41.20;;
40867;SDS011;26586;50.708;22.412;2022-11-15T14:55:30;54.50;;;37.20;;
40867;SDS011;26586;50.708;22.412;2022-11-15T14:58:02;75.90;;;49.25;;
40867;SDS011;26586;50.708;22.412;2022-11-15T15:00:29;64.88;;;43.78;;
40867;SDS011;26586;50.708;22.412;2022-11-15T15:02:57;65.45;;;45.67;;
40867;SDS011;26586;50.708;22.412;2022-11-15T15:05:24;72.57;;;53.13;;
40867;SDS011;26586;50.708;22.412;2022-11-15T15:07:56;30.13;;;24.17;;
40867;SDS011;26586;50.708;22.412;2022-11-15T15:10:22;32.88;;;25.83;;
40867;SDS011;26586;50.708;22.412;2022-11-15T15:12:50;45.58;;;35.92;;
40867;SDS011;26586;50.708;22.412;2022-11-15T15:15:17;118.72;;;64.60;;
40867;SDS011;26586;50.708;22.412;2022-11-15T15:17:47;237.75;;;113.25;;
40867;SDS011;26586;50.708;22.412;2022-11-15T15:20:13;246.13;;;123.10;;
40867;SDS011;26586;50.708;22.412;2022-11-15T15:22:40;161.90;;;89.35;;
40867;SDS011;26586;50.708;22.412;2022-11-15T15:25:26;132.65;;;77.07;;
40867;SDS011;26586;50.708;22.412;2022-11-15T15:27:55;85.45;;;52.22;;
40867;SDS011;26586;50.708;22.412;2022-11-15T15:30:22;86.63;;;53.75;;
40867;SDS011;26586;50.708;22.412;2022-11-15T15:32:49;104.78;;;67.13;;
40867;SDS011;26586;50.708;22.412;2022-11-15T15:35:16;195.35;;;119.15;;
40867;SDS011;26586;50.708;22.412;2022-11-15T15:37:43;229.68;;;140.85;;
40867;SDS011;26586;50.708;22.412;2022-11-15T15:40:17;129.25;;;94.13;;
40867;SDS011;26586;50.708;22.412;2022-11-15T15:42:46;80.70;;;58.47;;
40867;SDS011;26586;50.708;22.412;2022-11-15T15:45:16;82.55;;;56.85;;
40867;SDS011;26586;50.708;22.412;2022-11-15T15:47:43;68.88;;;43.58;;
40867;SDS011;26586;50.708;22.412;2022-11-15T15:50:26;54.42;;;37.35;;
40867;SDS011;26586;50.708;22.412;2022-11-15T15:52:55;72.22;;;47.10;;
40867;SDS011;26586;50.708;22.412;2022-11-15T15:55:22;127.90;;;71.47;;
40867;SDS011;26586;50.708;22.412;2022-11-15T15:57:49;183.23;;;104.18;;
40867;SDS011;26586;50.708;22.412;2022-11-15T16:00:16;135.18;;;83.65;;
40867;SDS011;26586;50.708;22.412;2022-11-15T16:02:43;124.43;;;79.88;;
40867;SDS011;26586;50.708;22.412;2022-11-15T16:05:09;89.82;;;55.70;;
40867;SDS011;26586;50.708;22.412;2022-11-15T16:07:37;69.68;;;44.17;;
40867;SDS011;26586;50.708;22.412;2022-11-15T16:10:36;174.95;;;95.13;;
40867;SDS011;26586;50.708;22.412;2022-11-15T16:13:02;143.85;;;86.72;;
40867;SDS011;26586;50.708;22.412;2022-11-15T16:15:29;98.78;;;62.63;;
40867;SDS011;26586;50.708;22.412;2022-11-15T16:17:58;67.65;;;44.55;;
40867;SDS011;26586;50.708;22.412;2022-11-15T16:23:10;60.90;;;40.47;;
40867;SDS011;26586;50.708;22.412;2022-11-15T16:25:45;81.72;;;52.50;;
40867;SDS011;26586;50.708;22.412;2022-11-15T16:28:25;95.63;;;59.30;;
40867;SDS011;26586;50.708;22.412;2022-11-15T16:30:59;94.35;;;57.08;;
40867;SDS011;26586;50.708;22.412;2022-11-15T16:33:26;104.90;;;56.47;;
40867;SDS011;26586;50.708;22.412;2022-11-15T16:35:52;106.82;;;61.97;;
40867;SDS011;26586;50.708;22.412;2022-11-15T16:38:18;106.13;;;60.58;;
40867;SDS011;26586;50.708;22.412;2022-11-15T16:40:44;99.10;;;58.78;;
40867;SDS011;26586;50.708;22.412;2022-11-15T16:43:11;92.88;;;53.17;;
40867;SDS011;26586;50.708;22.412;2022-11-15T16:45:37;79.95;;;49.53;;
40867;SDS011;26586;50.708;22.412;2022-11-15T16:48:04;79.78;;;45.70;;
40867;SDS011;26586;50.708;22.412;2022-11-15T16:50:31;80.50;;;46.42;;
40867;SDS011;26586;50.708;22.412;2022-11-15T16:53:05;81.88;;;46.65;;
40867;SDS011;26586;50.708;22.412;2022-11-15T16:55:32;153.37;;;78.73;;
40867;SDS011;26586;50.708;22.412;2022-11-15T16:57:58;104.77;;;57.27;;
40867;SDS011;26586;50.708;22.412;2022-11-15T17:02:52;112.57;;;63.17;;
40867;SDS011;26586;50.708;22.412;2022-11-15T17:05:19;52.25;;;39.78;;